Time;durP1;ratioP1;P1;durP2;ratioP2;P2;SDS_P1;SDS_P2;PMS_P1;PMS_P2;Temp;Humidity;BMP_temperature;BMP_pressure;BME280_temperature;BME280_humidity;BME280_pressure;Samples;Min_cycle;Max_cycle;Signal;HPM_P1;HPM_P2
2022/07/05 00:00:43;;;;;;;8.98;3.78;;;;;;;20.16;46.25;94924.16;5086639;28;20028;-76
2022/07/05 00:03:09;;;;;;;5.28;3.22;;;;;;;20.52;46.19;94969.06;5087732;28;20024;-76
2022/07/05 00:05:35;;;;;;;5.43;3.25;;;;;;;20.26;46.36;94928.16;5087525;28;20036;-76
2022/07/05 00:08:01;;;;;;;3.85;2.92;;;;;;;20.25;46.37;94958.19;5085810;28;20032;-77
2022/07/05 00:10:26;;;;;;;5.13;2.92;;;;;;;20.03;46.48;94924.81;5086434;28;20169;-76
2022/07/05 00:12:51;;;;;;;4.25;3.20;;;;;;;20.12;46.54;94949.28;5086320;28;20101;-76
2022/07/05 00:15:18;;;;;;;6.07;3.30;;;;;;;20.05;46.36;94942.09;5087250;28;20032;-76
2022/07/05 00:17:43;;;;;;;4.75;3.25;;;;;;;19.88;46.78;94922.19;5085856;28;20035;-76
2022/07/05 00:20:09;;;;;;;4.53;3.10;;;;;;;19.80;46.86;94909.91;5068919;28;20063;-76
2022/07/05 00:22:35;;;;;;;3.88;3.20;;;;;;;19.73;46.74;94901.09;5086153;28;20401;-76
2022/07/05 00:25:00;;;;;;;7.18;3.30;;;;;;;19.94;46.76;94923.28;5087387;28;20044;-76
2022/07/05 00:27:26;;;;;;;6.60;3.40;;;;;;;20.04;46.64;94939.63;5086636;28;20032;-76
2022/07/05 00:29:51;;;;;;;5.63;3.25;;;;;;;19.89;47.15;94936.97;5087015;28;20037;-77
2022/07/05 00:32:17;;;;;;;5.55;3.10;;;;;;;19.55;47.41;94900.59;5086285;28;20463;-76
2022/07/05 00:34:42;;;;;;;5.75;3.22;;;;;;;19.66;47.20;94905.44;5085382;28;20113;-76
2022/07/05 00:37:08;;;;;;;4.53;3.08;;;;;;;19.87;47.38;94936.38;5074736;28;20028;-76
2022/07/05 00:39:33;;;;;;;4.68;2.95;;;;;;;19.82;47.16;94930.81;5072531;28;20274;-76
2022/07/05 00:42:00;;;;;;;4.55;3.10;;;;;;;19.73;46.97;94902.91;5071839;28;20029;-76
2022/07/05 00:44:35;;;;;;;5.90;3.13;;;;;;;19.80;47.03;94933.63;5071651;28;20410;-76
2022/07/05 00:47:03;;;;;;;3.65;3.15;;;;;;;19.70;47.37;94927.81;5072139;28;20063;-76
2022/07/05 00:49:29;;;;;;;5.38;3.13;;;;;;;19.61;47.44;94929.69;5072927;28;20048;-76
2022/07/05 00:51:55;;;;;;;11.50;3.00;;;;;;;19.42;47.29;94893.31;5071562;28;20024;-76
2022/07/05 00:54:20;;;;;;;3.15;2.67;;;;;;;19.48;47.44;94940.00;5055437;28;20123;-76
2022/07/05 00:56:46;;;;;;;3.60;2.80;;;;;;;19.37;47.21;94940.44;5073027;28;20092;-76
2022/07/05 00:59:11;;;;;;;6.20;2.90;;;;;;;19.07;46.81;94895.59;5071905;28;20037;-76
2022/07/05 01:01:37;;;;;;;6.10;2.65;;;;;;;19.11;46.43;94909.22;5072716;28;20093;-76
2022/07/05 01:04:02;;;;;;;4.68;2.60;;;;;;;19.38;46.30;94928.91;5072706;28;20032;-76
2022/07/05 01:06:28;;;;;;;3.90;2.63;;;;;;;19.38;45.80;94924.44;5072976;28;20490;-76
2022/07/05 01:08:53;;;;;;;5.75;2.80;;;;;;;19.48;46.21;94936.56;5071176;28;20502;-76
2022/07/05 01:11:19;;;;;;;3.38;2.47;;;;;;;19.52;45.97;94925.47;5071434;28;20056;-76
2022/07/05 01:13:45;;;;;;;5.53;2.50;;;;;;;19.40;46.15;94895.31;5054994;28;20028;-76
2022/07/05 01:16:10;;;;;;;5.00;2.75;;;;;;;19.40;45.61;94882.94;5071672;28;20039;-76
2022/07/05 01:18:36;;;;;;;4.50;3.35;;;;;;;19.40;46.54;94882.13;5072524;28;20070;-76
2022/07/05 01:21:02;;;;;;;4.55;2.60;;;;;;;19.72;46.44;94932.88;5071536;28;20481;-76
2022/07/05 01:23:31;;;;;;;4.78;2.60;;;;;;;19.73;45.72;94931.91;5072910;28;20053;-76
2022/07/05 01:25:57;;;;;;;3.78;2.40;;;;;;;19.51;45.42;94897.50;5070898;28;20029;-76
2022/07/05 01:28:22;;;;;;;4.72;2.50;;;;;;;19.69;44.47;94904.25;5038011;28;20509;-76
2022/07/05 01:30:48;;;;;;;3.72;2.45;;;;;;;19.94;44.63;94939.91;5073144;28;20040;-76
2022/07/05 01:33:13;;;;;;;4.00;2.80;;;;;;;19.89;45.30;94931.72;5071630;28;20028;-76
2022/07/05 01:35:39;;;;;;;7.72;2.67;;;;;;;19.62;45.95;94894.44;5053857;28;20048;-76
2022/07/05 01:38:05;;;;;;;3.65;2.30;;;;;;;19.88;46.52;94935.34;5071400;28;20534;-76
2022/07/05 01:40:31;;;;;;;4.90;2.50;;;;;;;19.97;46.61;94946.63;5070948;28;20032;-76
2022/07/05 01:42:56;;;;;;;8.73;2.55;;;;;;;19.69;45.14;94909.53;5071060;28;20032;-77
2022/07/05 01:45:41;;;;;;;4.55;2.20;;;;;;;19.66;45.20;94894.91;5072462;28;20040;-76
2022/07/05 01:48:08;;;;;;;3.83;2.63;;;;;;;19.95;45.05;94938.91;5071321;28;20028;-76
2022/07/05 01:50:39;;;;;;;4.85;2.72;;;;;;;19.76;44.97;94899.91;5070678;28;20418;-76
2022/07/05 01:53:05;;;;;;;5.20;2.90;;;;;;;19.92;44.73;94931.38;5071025;28;20029;-76
2022/07/05 01:55:30;;;;;;;5.30;2.50;;;;;;;19.66;45.60;94888.81;5070754;28;20043;-76
2022/07/05 01:57:56;;;;;;;5.55;2.40;;;;;;;19.91;45.17;94927.09;5072123;28;20028;-76
2022/07/05 02:00:22;;;;;;;5.05;2.42;;;;;;;19.94;45.17;94934.63;5070812;28;20489;-76
2022/07/05 02:02:47;;;;;;;3.17;2.30;;;;;;;19.72;45.13;94885.47;5070795;28;20170;-76
2022/07/05 02:05:12;;;;;;;4.60;2.55;;;;;;;19.91;46.45;94918.38;5053351;28;20425;-76
2022/07/05 02:07:48;;;;;;;5.30;2.47;;;;;;;19.97;45.29;94934.25;5072041;28;20028;-76
2022/07/05 02:10:14;;;;;;;5.88;2.30;;;;;;;19.92;45.12;94931.38;5072202;28;20489;-76
2022/07/05 02:12:40;;;;;;;4.35;2.47;;;;;;;19.84;46.01;94934.09;5071498;28;20025;-76
2022/07/05 02:15:06;;;;;;;4.03;2.50;;;;;;;19.74;45.92;94908.00;5071917;28;20055;-76
2022/07/05 02:17:31;;;;;;;4.68;2.30;;;;;;;19.35;46.26;94874.75;5070428;28;20020;-77
2022/07/05 02:19:57;;;;;;;4.13;2.05;;;;;;;19.49;45.17;94891.59;5071667;28;20182;-76
2022/07/05 02:22:23;;;;;;;4.22;2.30;;;;;;;19.63;45.73;94919.75;5069999;28;20543;-76
2022/07/05 02:24:49;;;;;;;8.25;2.20;;;;;;;19.76;46.62;94921.00;5071538;28;20097;-76
2022/07/05 02:27:14;;;;;;;5.93;2.60;;;;;;;19.58;47.41;94898.41;5069284;28;20154;-76
2022/07/05 02:29:40;;;;;;;4.70;2.40;;;;;;;19.56;46.99;94900.41;5071542;28;20089;-76
2022/07/05 02:32:05;;;;;;;5.18;2.53;;;;;;;19.48;46.07;94902.31;5053259;28;20055;-76
2022/07/05 02:34:31;;;;;;;6.97;2.50;;;;;;;19.36;48.77;94886.97;5070938;28;20537;-76
2022/07/05 02:36:56;;;;;;;2.83;2.35;;;;;;;19.64;48.21;94936.41;5071074;28;20058;-76
2022/07/05 02:39:22;;;;;;;6.47;2.55;;;;;;;19.60;50.48;94933.31;5071344;28;20041;-76
2022/07/05 02:41:47;;;;;;;5.40;2.08;;;;;;;19.60;49.42;94935.94;5069718;28;20032;-76
2022/07/05 02:44:13;;;;;;;3.15;2.33;;;;;;;19.23;49.88;94914.91;5069815;28;20097;-76
2022/07/05 02:46:38;;;;;;;5.88;2.50;;;;;;;19.06;51.45;94915.03;5069707;28;20025;-76
2022/07/05 02:49:04;;;;;;;6.65;2.58;;;;;;;19.15;51.20;94939.47;5071394;28;20029;-76
2022/07/05 02:51:30;;;;;;;4.13;2.30;;;;;;;19.17;50.47;94954.09;5070921;28;20059;-76
2022/07/05 02:53:55;;;;;;;3.60;2.42;;;;;;;18.93;51.68;94925.31;5071128;28;20478;-76
2022/07/05 02:56:21;;;;;;;6.05;2.22;;;;;;;18.91;51.41;94927.28;5069381;28;20060;-76
2022/07/05 02:58:46;;;;;;;3.88;2.45;;;;;;;19.09;52.76;94966.50;5069351;28;20032;-76
2022/07/05 03:01:12;;;;;;;5.85;2.40;;;;;;;18.65;53.44;94910.00;5071016;28;20032;-76
2022/07/05 03:03:37;;;;;;;6.40;2.58;;;;;;;18.66;52.91;94927.41;5071171;28;20035;-76
2022/07/05 03:06:03;;;;;;;4.82;2.30;;;;;;;18.61;52.75;94921.88;5070400;28;20447;-76
2022/07/05 03:08:28;;;;;;;3.97;2.28;;;;;;;18.89;53.09;94963.53;5070994;28;20021;-76
2022/07/05 03:10:54;;;;;;;3.22;2.40;;;;;;;18.86;52.30;94967.31;5071304;28;20032;-76
2022/07/05 03:13:19;;;;;;;4.43;2.42;;;;;;;18.64;50.07;94921.53;5070401;28;20028;-76
2022/07/05 03:15:44;;;;;;;4.28;2.33;;;;;;;18.95;50.47;94960.19;5071297;28;20107;-76
2022/07/05 03:18:10;;;;;;;3.35;2.50;;;;;;;18.75;49.75;94931.69;5070767;28;20025;-76
2022/07/05 03:20:35;;;;;;;3.20;2.42;;;;;;;18.70;48.86;94923.47;5069416;28;20115;-76
2022/07/05 03:23:01;;;;;;;8.43;2.83;;;;;;;18.90;49.06;94958.06;5069789;28;20033;-76
2022/07/05 03:25:27;;;;;;;4.57;2.80;;;;;;;18.59;48.93;94910.72;5069035;28;20039;-76
2022/07/05 03:27:52;;;;;;;5.28;2.80;;;;;;;18.61;48.92;94905.25;5069248;28;20033;-76
2022/07/05 03:30:18;;;;;;;3.10;2.70;;;;;;;18.56;49.49;94905.81;5069595;28;20543;-76
2022/07/05 03:32:43;;;;;;;3.60;2.50;;;;;;;18.82;49.76;94944.16;5070769;28;20052;-76
2022/07/05 03:35:09;;;;;;;4.50;2.85;;;;;;;18.88;50.14;94953.97;5068230;28;20494;-76
2022/07/05 03:37:34;;;;;;;2.97;2.67;;;;;;;18.88;50.40;94954.78;5052904;28;20028;-76
2022/07/05 03:40:00;;;;;;;4.00;2.75;;;;;;;18.75;50.95;94947.47;5069366;28;20090;-76
2022/07/05 03:42:25;;;;;;;5.32;3.00;;;;;;;18.65;51.12;94922.34;5068945;28;20020;-76
2022/07/05 03:44:51;;;;;;;2.97;2.67;;;;;;;18.87;51.30;94957.59;5070475;28;20391;-76
2022/07/05 03:47:16;;;;;;;5.75;2.83;;;;;;;18.63;51.42;94919.88;5052499;28;20032;-76
2022/07/05 03:49:42;;;;;;;5.55;2.83;;;;;;;18.61;51.49;94900.84;5069908;28;20037;-76
2022/07/05 03:52:07;;;;;;;5.32;2.67;;;;;;;18.93;51.67;94949.00;5069986;28;20041;-76
2022/07/05 03:54:33;;;;;;;4.70;2.88;;;;;;;18.93;51.98;94944.56;5070550;28;20028;-76
2022/07/05 03:56:58;;;;;;;5.88;2.90;;;;;;;18.97;51.81;94937.97;5052714;28;20047;-76
2022/07/05 03:59:24;;;;;;;5.28;2.88;;;;;;;18.79;51.61;94902.41;5070133;28;20449;-76
2022/07/05 04:01:49;;;;;;;6.32;3.10;;;;;;;18.78;51.84;94895.47;5069980;28;20048;-76
2022/07/05 04:04:15;;;;;;;4.20;3.17;;;;;;;18.96;51.72;94903.91;5068282;28;20498;-76
2022/07/05 04:06:40;;;;;;;3.80;3.08;;;;;;;18.98;51.44;94891.41;5069183;28;20107;-76
2022/07/05 04:09:06;;;;;;;5.10;2.97;;;;;;;19.23;51.49;94933.31;5069672;28;20040;-76
2022/07/05 04:11:31;;;;;;;8.10;3.00;;;;;;;19.49;51.03;94941.63;5070298;28;20186;-76
2022/07/05 04:13:57;;;;;;;6.88;3.25;;;;;;;20.10;49.32;94896.72;5073984;28;20043;-76
2022/07/05 04:16:22;;;;;;;3.55;2.85;;;;;;;20.92;47.79;94925.50;5074322;28;20478;-76
2022/07/05 04:18:48;;;;;;;4.53;3.33;;;;;;;21.46;46.34;94902.22;5073454;28;20105;-76
2022/07/05 04:21:13;;;;;;;5.80;3.10;;;;;;;22.27;44.67;94935.06;5073614;28;20075;-76
2022/07/05 04:23:39;;;;;;;5.72;3.30;;;;;;;22.93;43.53;94931.03;5073924;28;20509;-76
2022/07/05 04:26:04;;;;;;;8.77;2.95;;;;;;;23.56;42.27;94930.69;5073654;28;20553;-76
2022/07/05 04:28:30;;;;;;;4.85;3.30;;;;;;;24.18;40.84;94928.59;5073108;28;20078;-77
2022/07/05 04:30:56;;;;;;;7.38;3.15;;;;;;;24.69;39.76;94919.88;5072291;28;20062;-76
2022/07/05 04:33:22;;;;;;;5.95;2.90;;;;;;;25.21;38.60;94920.59;5055814;28;20126;-77
2022/07/05 04:35:47;;;;;;;5.85;2.92;;;;;;;25.60;37.43;94900.88;5070945;28;20573;-77
2022/07/05 04:38:13;;;;;;;9.50;2.70;;;;;;;25.95;37.28;94911.00;5059253;28;20021;-77
2022/07/05 04:40:40;;;;;;;3.63;2.65;;;;;;;26.45;38.62;94944.69;5036904;28;20124;-77
2022/07/05 04:43:06;;;;;;;4.72;2.70;;;;;;;26.91;37.43;94932.66;5069273;28;20114;-77
2022/07/05 04:45:32;;;;;;;6.10;2.90;;;;;;;27.43;36.05;94948.16;5071884;28;20032;-77
2022/07/05 04:47:57;;;;;;;6.95;2.70;;;;;;;27.14;36.58;94926.59;5073360;28;20111;-77
2022/07/05 04:50:23;;;;;;;9.77;2.88;;;;;;;27.21;35.55;94942.53;5038657;28;20029;-77
2022/07/05 04:52:48;;;;;;;8.65;2.88;;;;;;;26.65;36.51;94939.94;5073294;28;20025;-77
2022/07/05 04:55:14;;;;;;;5.60;2.90;;;;;;;25.96;38.16;94930.44;5072941;28;20029;-77
2022/07/05 04:57:40;;;;;;;7.93;3.20;;;;;;;25.77;38.13;94938.38;5069414;28;20025;-76
2022/07/05 05:00:08;;;;;;;7.05;2.72;;;;;;;25.80;38.75;94927.28;5072137;28;20478;-76
2022/07/05 05:02:34;;;;;;;6.72;3.10;;;;;;;25.94;38.25;94943.16;5070132;28;20028;-76
2022/07/05 05:04:59;;;;;;;4.38;3.00;;;;;;;25.50;39.66;94921.00;5063991;28;20040;-76
2022/07/05 05:07:25;;;;;;;8.32;3.40;;;;;;;25.70;39.02;94942.13;5071973;28;20028;-76
2022/07/05 05:09:50;;;;;;;4.20;3.20;;;;;;;25.62;39.64;94945.84;5065301;28;20385;-77
2022/07/05 05:12:15;;;;;;;5.43;2.90;;;;;;;25.57;39.21;94951.00;5064983;28;20021;-76
2022/07/05 05:14:41;;;;;;;6.70;3.25;;;;;;;25.36;38.85;94934.41;5048631;28;20040;-76
2022/07/05 05:17:07;;;;;;;6.05;2.83;;;;;;;25.29;39.66;94935.47;5056305;28;20081;-76
2022/07/05 05:19:32;;;;;;;5.35;3.00;;;;;;;25.41;39.14;94947.88;5063226;28;20035;-76
2022/07/05 05:21:58;;;;;;;7.50;3.22;;;;;;;25.29;39.82;94946.91;5063478;28;20036;-76
2022/07/05 05:24:23;;;;;;;7.00;3.30;;;;;;;25.36;39.73;94946.88;5066933;28;20033;-76
2022/07/05 05:26:50;;;;;;;6.22;3.65;;;;;;;25.40;39.62;94938.25;5063636;28;20517;-76
2022/07/05 05:29:16;;;;;;;5.07;3.30;;;;;;;25.51;39.47;94950.03;5066729;28;20048;-76
2022/07/05 05:31:42;;;;;;;5.20;4.20;;;;;;;25.37;39.90;94941.34;5065362;28;20029;-77
2022/07/05 05:34:07;;;;;;;5.85;3.40;;;;;;;25.32;40.64;94949.13;5034844;28;20040;-76
2022/07/05 05:36:33;;;;;;;4.38;3.70;;;;;;;25.30;40.57;94940.59;5058405;28;20543;-76
2022/07/05 05:38:58;;;;;;;4.38;3.65;;;;;;;25.26;40.31;94947.34;5032544;28;20044;-76
2022/07/05 05:41:24;;;;;;;6.82;3.58;;;;;;;25.25;40.67;94940.41;5055837;28;20025;-76
2022/07/05 05:43:49;;;;;;;4.82;3.47;;;;;;;25.32;40.53;94946.47;5066907;28;20509;-76
2022/07/05 05:46:14;;;;;;;6.95;3.58;;;;;;;25.37;41.21;94941.34;5057163;28;20086;-76
2022/07/05 05:48:40;;;;;;;5.50;3.70;;;;;;;25.39;40.56;94936.63;5068181;28;20078;-76
2022/07/05 05:51:05;;;;;;;4.90;3.78;;;;;;;25.33;40.62;94945.47;5066213;28;20035;-76
2022/07/05 05:53:31;;;;;;;7.97;3.40;;;;;;;25.33;40.64;94942.00;5049436;28;20029;-76
2022/07/05 05:55:56;;;;;;;5.70;3.60;;;;;;;25.22;41.13;94930.22;5052629;28;20037;-76
2022/07/05 05:58:23;;;;;;;5.78;3.88;;;;;;;25.27;42.01;94927.72;5052496;28;20044;-76
2022/07/05 06:00:51;;;;;;;5.93;3.58;;;;;;;25.40;41.44;94948.06;5050296;28;20182;-76
2022/07/05 06:03:20;;;;;;;5.07;3.53;;;;;;;25.42;41.77;94946.81;5054032;28;20025;-76
2022/07/05 06:05:46;;;;;;;5.20;3.50;;;;;;;25.57;41.00;94953.66;5058692;28;20376;-76
2022/07/05 06:08:11;;;;;;;8.25;3.80;;;;;;;25.60;41.62;94948.75;5063404;28;20050;-76
2022/07/05 06:10:37;;;;;;;6.25;3.53;;;;;;;25.63;43.15;94934.19;5049813;28;20040;-76
2022/07/05 06:13:04;;;;;;;5.53;3.50;;;;;;;25.85;41.60;94951.44;5027701;28;20033;-76
2022/07/05 06:15:30;;;;;;;5.30;4.05;;;;;;;25.91;42.18;94948.91;5043337;28;20033;-76
2022/07/05 06:17:56;;;;;;;4.78;3.55;;;;;;;25.92;40.00;94939.91;5036249;28;20029;-76
2022/07/05 06:20:24;;;;;;;6.90;3.95;;;;;;;25.79;41.31;94946.94;5043942;28;20029;-76
2022/07/05 06:22:50;;;;;;;6.07;3.85;;;;;;;25.93;40.15;94952.97;5043564;28;20025;-76
2022/07/05 06:25:15;;;;;;;5.60;4.28;;;;;;;26.02;39.92;94950.84;5065503;28;20035;-76
2022/07/05 06:27:41;;;;;;;8.73;4.35;;;;;;;26.14;39.69;94956.28;5063694;28;20487;-76
2022/07/05 06:30:07;;;;;;;5.30;4.28;;;;;;;26.15;39.81;94952.56;5066720;28;20490;-76
2022/07/05 06:32:33;;;;;;;6.38;4.20;;;;;;;26.08;39.86;94961.44;5066292;28;20065;-77
2022/07/05 06:34:59;;;;;;;6.57;4.13;;;;;;;26.13;40.58;94951.97;5048173;28;20530;-76
2022/07/05 06:37:24;;;;;;;7.40;4.07;;;;;;;26.02;40.17;94913.59;5048952;28;20027;-76
2022/07/05 06:39:50;;;;;;;7.18;4.65;;;;;;;26.43;40.92;94963.53;5068829;28;20792;-76
2022/07/05 06:42:16;;;;;;;6.25;4.03;;;;;;;26.55;39.39;94954.81;5063332;28;20028;-76
2022/07/05 06:44:41;;;;;;;10.05;4.60;;;;;;;26.63;38.81;94958.00;5062858;28;20025;-76
2022/07/05 06:47:07;;;;;;;7.60;4.60;;;;;;;26.71;39.55;94955.03;5050923;28;20035;-77
2022/07/05 06:49:33;;;;;;;6.55;4.47;;;;;;;26.78;38.05;94954.97;5065845;28;20029;-76
2022/07/05 06:51:58;;;;;;;8.60;4.18;;;;;;;26.79;38.40;94953.09;5066532;28;20043;-76
2022/07/05 06:54:24;;;;;;;5.18;4.38;;;;;;;26.83;39.13;94940.94;5070557;28;20040;-76
2022/07/05 06:56:49;;;;;;;11.25;4.60;;;;;;;26.97;38.65;94945.09;5070767;28;20021;-80
2022/07/05 06:59:15;;;;;;;8.70;4.65;;;;;;;26.92;38.11;94939.63;5070414;28;20033;-82
2022/07/05 07:01:40;;;;;;;8.18;4.97;;;;;;;26.96;38.51;94941.59;5070970;28;20456;-81
2022/07/05 07:04:06;;;;;;;12.48;4.90;;;;;;;26.85;39.08;94901.56;5069042;28;20032;-78
2022/07/05 07:06:31;;;;;;;9.18;5.20;;;;;;;27.27;37.98;94946.94;5071172;28;20029;-76
2022/07/05 07:11:41;;;;;;;9.00;4.90;;;;;;;27.14;38.55;94938.06;5059687;28;20090;-76
2022/07/05 07:14:06;;;;;;;12.85;4.60;;;;;;;27.23;38.45;94940.44;5053963;28;20491;-76
2022/07/05 07:16:32;;;;;;;9.27;4.65;;;;;;;26.89;38.38;94898.25;5061040;28;20040;-76
2022/07/05 07:18:58;;;;;;;7.88;4.95;;;;;;;27.10;38.90;94936.06;5057492;28;20032;-76
2022/07/05 07:21:23;;;;;;;11.45;4.90;;;;;;;27.23;37.91;94940.44;5056432;28;20032;-76
2022/07/05 07:23:48;;;;;;;9.25;4.60;;;;;;;27.33;38.29;94935.34;5062681;28;20494;-76
2022/07/05 07:26:14;;;;;;;13.55;4.43;;;;;;;27.44;38.43;94929.22;5062487;28;20043;-76
2022/07/05 07:28:40;;;;;;;12.38;4.60;;;;;;;27.51;39.51;94932.63;5052323;28;20025;-76
2022/07/05 07:31:06;;;;;;;9.55;4.95;;;;;;;27.71;38.26;94936.81;5045752;28;20478;-76
2022/07/05 07:33:32;;;;;;;10.00;5.30;;;;;;;27.69;37.47;94925.56;5053086;28;20555;-76
2022/07/05 07:35:58;;;;;;;10.52;4.60;;;;;;;27.93;37.42;94945.91;5056718;28;20055;-76
2022/07/05 07:38:24;;;;;;;10.15;4.80;;;;;;;28.09;37.14;94948.94;5052091;28;20029;-76
2022/07/05 07:40:50;;;;;;;13.18;5.68;;;;;;;28.07;37.04;94931.28;5065647;28;20116;-76
2022/07/05 07:43:16;;;;;;;12.98;4.90;;;;;;;28.22;36.81;94943.34;5062868;28;20024;-76
2022/07/05 07:45:42;;;;;;;12.88;5.15;;;;;;;28.21;36.90;94928.38;5059606;28;20131;-76
2022/07/05 07:48:11;;;;;;;9.52;5.20;;;;;;;28.26;36.91;94917.81;5059186;28;20055;-76
2022/07/05 07:50:36;;;;;;;9.55;5.57;;;;;;;28.21;35.74;94907.00;5068225;28;20061;-76
2022/07/05 07:53:02;;;;;;;9.27;5.22;;;;;;;28.27;36.44;94924.75;5068028;28;20037;-77
2022/07/05 07:55:29;;;;;;;9.38;5.63;;;;;;;28.34;36.75;94938.81;5055107;28;20064;-76
2022/07/05 07:57:54;;;;;;;7.68;5.28;;;;;;;28.20;35.84;94951.59;5055172;28;20029;-76
2022/07/05 08:00:20;;;;;;;9.38;4.72;;;;;;;28.18;36.97;94948.34;5071027;28;20043;-76
2022/07/05 08:02:46;;;;;;;10.60;5.60;;;;;;;28.18;38.13;94947.53;5070564;28;20028;-78
2022/07/05 08:05:11;;;;;;;10.27;5.28;;;;;;;27.98;36.20;94907.84;5070000;28;20457;-77
2022/07/05 08:07:36;;;;;;;11.27;5.25;;;;;;;28.16;35.90;94944.28;5068081;28;20379;-76
2022/07/05 08:10:06;;;;;;;8.88;5.30;;;;;;;28.24;37.29;94946.59;5069944;28;20059;-76
2022/07/05 08:12:31;;;;;;;16.63;5.30;;;;;;;28.34;36.24;94935.34;5063752;28;20027;-76
2022/07/05 08:14:57;;;;;;;9.63;4.80;;;;;;;28.50;37.21;94935.44;5054696;28;20037;-76
2022/07/05 08:17:22;;;;;;;8.07;5.53;;;;;;;28.51;36.04;94918.38;5056683;28;20072;-77
2022/07/05 08:22:32;;;;;;;6.78;4.95;;;;;;;28.70;36.61;94928.91;5056798;28;20509;-77
2022/07/05 08:24:57;;;;;;;7.03;4.90;;;;;;;28.80;36.11;94918.38;5043205;28;20076;-76
2022/07/05 08:27:23;;;;;;;9.18;5.07;;;;;;;28.93;35.75;94912.75;5034115;28;20025;-76
2022/07/05 08:29:49;;;;;;;9.48;5.47;;;;;;;28.98;35.00;94917.41;5067240;28;20029;-76
2022/07/05 08:32:15;;;;;;;11.68;5.25;;;;;;;28.93;36.17;94891.38;5035104;28;20052;-77
2022/07/05 08:34:40;;;;;;;7.40;5.28;;;;;;;28.96;35.76;94879.38;5063991;28;20134;-76
2022/07/05 08:37:06;;;;;;;6.90;4.85;;;;;;;29.23;35.29;94911.72;5056642;28;20484;-76
2022/07/05 08:39:31;;;;;;;11.70;5.15;;;;;;;29.21;35.69;94896.97;5067216;28;20068;-77
2022/07/05 08:41:59;;;;;;;10.23;5.18;;;;;;;29.29;35.67;94902.72;5061632;28;20028;-77
2022/07/05 08:44:25;;;;;;;8.02;4.75;;;;;;;29.49;35.33;94910.28;5039123;28;20041;-77
2022/07/05 08:46:51;;;;;;;8.07;4.80;;;;;;;29.56;33.84;94904.75;5039511;28;20028;-77
2022/07/05 08:49:22;;;;;;;10.10;5.20;;;;;;;29.51;34.23;94899.34;5032922;28;20025;-77
2022/07/05 08:51:48;;;;;;;8.95;4.80;;;;;;;29.42;35.07;94882.06;5047419;28;20033;-76
2022/07/05 08:54:13;;;;;;;11.85;5.68;;;;;;;29.65;35.25;94899.88;5043086;28;20043;-77
2022/07/05 08:56:42;;;;;;;11.15;5.60;;;;;;;29.82;34.89;94903.34;5047835;28;20036;-77
2022/07/05 08:59:08;;;;;;;9.55;5.25;;;;;;;29.80;34.59;94900.88;5035593;28;21638;-77
2022/07/05 09:01:37;;;;;;;12.07;5.20;;;;;;;29.93;35.17;94904.28;5065440;28;20036;-76
2022/07/05 09:04:06;;;;;;;14.13;5.30;;;;;;;30.03;35.55;94901.75;5067335;28;20466;-76
2022/07/05 09:06:32;;;;;;;10.60;5.53;;;;;;;30.10;34.45;94898.91;5052509;28;20032;-76
2022/07/05 09:08:58;;;;;;;8.27;5.20;;;;;;;30.21;34.08;94895.31;5048881;28;20115;-76
2022/07/05 09:11:28;;;;;;;8.73;4.80;;;;;;;30.15;33.91;94894.44;5048986;28;20376;-77
2022/07/05 09:13:54;;;;;;;;;;;;;;;30.27;34.38;94894.34;5067648;28;20033;-76
2022/07/05 09:16:19;;;;;;;10.02;4.93;;;;;;;30.38;35.08;94881.88;5066363;28;20325;-76
2022/07/05 09:18:46;;;;;;;7.75;5.25;;;;;;;30.20;33.00;94838.25;5057682;28;20025;-76
2022/07/05 09:21:12;;;;;;;15.15;4.95;;;;;;;30.54;34.95;94883.69;5064082;28;20029;-77
2022/07/05 09:23:37;;;;;;;9.05;4.63;;;;;;;30.67;33.71;94882.50;5052635;28;20033;-76
2022/07/05 09:26:03;;;;;;;10.98;4.80;;;;;;;30.62;33.03;94867.19;5062155;28;20461;-76
2022/07/05 09:28:28;;;;;;;11.75;4.90;;;;;;;30.70;33.55;94868.56;5064947;28;20035;-76
2022/07/05 09:30:53;;;;;;;6.32;4.65;;;;;;;30.68;33.10;94860.81;5052161;28;20094;-76
2022/07/05 09:33:19;;;;;;;9.70;4.90;;;;;;;30.68;33.31;94868.84;5068888;28;20501;-76
2022/07/05 09:35:56;;;;;;;9.27;5.18;;;;;;;30.54;33.47;94867.63;5050595;28;20462;-76
2022/07/05 09:38:23;;;;;;;5.68;4.65;;;;;;;30.56;34.29;94860.13;5064240;28;20024;-76
2022/07/05 09:40:58;;;;;;;10.98;5.18;;;;;;;30.45;33.49;94853.03;5067530;28;20041;-76
2022/07/05 09:43:27;;;;;;;10.25;4.85;;;;;;;30.44;32.85;94859.44;5064285;28;20040;-76
2022/07/05 09:46:00;;;;;;;7.13;5.07;;;;;;;30.41;33.52;94854.59;5053807;28;20116;-77
2022/07/05 09:48:30;;;;;;;10.65;5.38;;;;;;;30.42;33.86;94858.88;5043463;28;20024;-76
2022/07/05 09:51:04;;;;;;;12.77;4.97;;;;;;;30.40;33.64;94855.66;5030089;28;20494;-76
2022/07/05 09:53:49;;;;;;;8.15;5.00;;;;;;;30.46;33.55;94851.97;5050459;28;20508;-76
2022/07/05 09:56:15;;;;;;;7.93;4.80;;;;;;;30.50;34.21;94840.50;5063097;28;20036;-76
2022/07/05 09:58:40;;;;;;;7.95;5.60;;;;;;;30.66;33.21;94841.47;5058181;28;20039;-76
2022/07/05 10:01:23;;;;;;;7.35;4.55;;;;;;;30.78;32.33;94838.66;5033564;28;20036;-76
2022/07/05 10:03:55;;;;;;;9.35;4.60;;;;;;;30.88;33.89;94841.47;5028237;28;20498;-76
2022/07/05 10:06:25;;;;;;;5.70;4.47;;;;;;;30.97;33.55;94827.59;5049018;28;20152;-76
2022/07/05 10:08:52;;;;;;;7.60;4.63;;;;;;;31.08;34.09;94822.06;5053243;28;20554;-76
2022/07/05 10:11:21;;;;;;;10.15;4.82;;;;;;;31.21;32.18;94836.13;5042839;28;20029;-76
2022/07/05 10:13:50;;;;;;;7.05;4.90;;;;;;;31.28;33.32;94828.66;5057647;28;20031;-76
2022/07/05 10:16:17;;;;;;;6.43;4.63;;;;;;;31.17;32.40;94817.88;5064792;28;20498;-77
2022/07/05 10:18:44;;;;;;;8.10;4.75;;;;;;;31.03;32.99;94827.38;5066161;28;20067;-76
2022/07/05 10:21:15;;;;;;;6.53;4.35;;;;;;;31.01;32.74;94804.56;5047242;28;21406;-76
2022/07/05 10:23:53;;;;;;;7.22;5.10;;;;;;;31.19;33.50;94822.16;5048022;28;20085;-76
2022/07/05 10:26:19;;;;;;;8.80;5.35;;;;;;;31.23;34.47;94817.88;5053643;28;20114;-76
2022/07/05 10:28:49;;;;;;;9.25;5.00;;;;;;;31.16;33.48;94807.38;5049559;28;20018;-76
2022/07/05 10:31:15;;;;;;;8.15;4.80;;;;;;;31.29;32.41;94806.16;5061537;28;20024;-77
2022/07/05 10:33:41;;;;;;;6.60;4.85;;;;;;;31.45;32.63;94807.88;5049498;28;20033;-76
2022/07/05 10:36:06;;;;;;;7.28;4.57;;;;;;;31.44;33.17;94790.19;5056629;28;20056;-77
2022/07/05 10:38:35;;;;;;;6.13;4.90;;;;;;;31.63;33.85;94806.69;5044299;28;20502;-77
2022/07/05 10:41:02;;;;;;;8.30;4.80;;;;;;;31.75;34.72;94799.22;5046204;28;20459;-76
2022/07/05 10:43:27;;;;;;;8.48;5.10;;;;;;;31.79;32.98;94781.53;5046829;28;20028;-77
2022/07/05 10:45:53;;;;;;;6.38;5.03;;;;;;;31.92;32.52;94796.38;5049738;28;20063;-76
2022/07/05 10:48:19;;;;;;;7.10;5.57;;;;;;;31.90;31.23;94789.63;5044504;28;20410;-76
2022/07/05 10:50:55;;;;;;;9.73;5.43;;;;;;;31.36;32.60;94794.16;5053348;28;20037;-76
2022/07/05 10:53:25;;;;;;;7.85;5.78;;;;;;;31.33;31.79;94794.63;5040024;28;20153;-76
2022/07/05 10:56:11;;;;;;;9.30;5.88;;;;;;;31.42;31.82;94786.94;5047095;28;20064;-76
2022/07/05 10:58:46;;;;;;;6.72;5.63;;;;;;;31.44;31.77;94792.06;5064772;28;20035;-76
2022/07/05 11:01:12;;;;;;;7.90;5.63;;;;;;;31.53;31.78;94783.25;5026603;28;20478;-77
2022/07/05 11:04:00;;;;;;;7.22;5.53;;;;;;;31.57;31.96;94772.84;5065661;28;20027;-76
2022/07/05 11:06:26;;;;;;;8.27;5.55;;;;;;;31.64;31.14;94772.59;5067844;28;20486;-77
2022/07/05 11:09:00;;;;;;;5.95;5.22;;;;;;;31.72;30.21;94759.47;5059776;28;20041;-76
2022/07/05 11:11:28;;;;;;;9.13;5.60;;;;;;;31.87;31.34;94776.72;5061423;28;20032;-77
2022/07/05 11:13:54;;;;;;;9.00;5.55;;;;;;;31.82;31.69;94781.03;5053239;28;20035;-76
2022/07/05 11:16:23;;;;;;;7.03;5.25;;;;;;;31.75;30.96;94772.38;5044063;28;20414;-77
2022/07/05 11:18:53;;;;;;;5.50;5.00;;;;;;;31.69;31.11;94759.19;5062728;28;20033;-77
2022/07/05 11:21:22;;;;;;;6.43;5.55;;;;;;;31.61;30.90;94774.72;5059184;28;20044;-77
2022/07/05 11:23:47;;;;;;;7.87;5.43;;;;;;;31.60;31.44;94766.94;5044217;28;20032;-77
2022/07/05 11:26:13;;;;;;;6.13;5.32;;;;;;;31.73;31.36;94771.03;5056454;28;20029;-77
2022/07/05 11:28:46;;;;;;;8.10;5.95;;;;;;;31.73;31.44;94768.34;5051783;28;20040;-76
2022/07/05 11:31:11;;;;;;;7.53;5.30;;;;;;;31.72;30.35;94774.78;5054006;28;20406;-76
2022/07/05 11:33:37;;;;;;;7.43;6.00;;;;;;;31.71;30.57;94773.19;5053583;28;20040;-77